createdAt,value
2019-05-28T00:00:59.411Z,21.41
2019-05-28T00:03:25.997Z,21.39
2019-05-28T00:05:52.577Z,21.39
2019-05-28T00:08:19.178Z,21.39
2019-05-28T00:10:45.761Z,21.38
2019-05-28T00:13:12.361Z,21.37
2019-05-28T00:15:38.959Z,21.34
2019-05-28T00:18:05.535Z,21.34
2019-05-28T00:20:32.130Z,21.33
2019-05-28T00:22:58.775Z,21.31
2019-05-28T00:25:29.192Z,21.32
2019-05-28T00:27:53.760Z,21.30
2019-05-28T00:30:21.123Z,21.27
2019-05-28T00:32:47.903Z,21.27
2019-05-28T00:35:14.569Z,21.25
2019-05-28T00:37:41.162Z,21.23
2019-05-28T00:40:08.592Z,21.23
2019-05-28T00:42:35.213Z,21.22
2019-05-28T00:45:01.816Z,21.19
2019-05-28T00:47:28.502Z,21.18
2019-05-28T00:49:55.136Z,21.17
2019-05-28T00:52:21.788Z,21.15
2019-05-28T00:54:48.423Z,21.14
2019-05-28T00:57:15.022Z,21.14
2019-05-28T00:59:41.621Z,21.12
2019-05-28T01:02:08.276Z,21.11
2019-05-28T01:04:34.873Z,21.11
2019-05-28T01:07:01.568Z,21.09
2019-05-28T01:09:28.307Z,21.06
2019-05-28T01:11:54.909Z,21.07
2019-05-28T01:14:21.536Z,21.05
2019-05-28T01:16:48.139Z,21.04
2019-05-28T01:19:14.777Z,21.02
2019-05-28T01:21:42.722Z,21.00
2019-05-28T01:24:09.470Z,20.97
2019-05-28T01:26:36.202Z,20.95
2019-05-28T01:29:02.829Z,20.93
2019-05-28T01:31:29.439Z,20.91
2019-05-28T01:33:56.070Z,20.88
2019-05-28T01:36:22.666Z,20.85
2019-05-28T01:38:49.320Z,20.83
2019-05-28T01:41:15.906Z,20.80
2019-05-28T01:43:42.506Z,20.78
2019-05-28T01:46:09.135Z,20.77
2019-05-28T01:48:35.738Z,20.73
2019-05-28T01:51:02.326Z,20.72
2019-05-28T01:53:28.947Z,20.69
2019-05-28T01:55:55.574Z,20.66
2019-05-28T01:58:22.233Z,20.63
2019-05-28T02:00:48.836Z,20.60
2019-05-28T02:03:15.428Z,20.56
2019-05-28T02:05:42.068Z,20.54
2019-05-28T02:08:08.671Z,20.51
2019-05-28T02:10:35.341Z,20.49
2019-05-28T02:13:01.930Z,20.46
2019-05-28T02:15:28.530Z,20.43
2019-05-28T02:17:55.176Z,20.41
2019-05-28T02:20:21.788Z,20.38
2019-05-28T02:22:48.417Z,20.35
2019-05-28T02:25:15.007Z,20.31
2019-05-28T02:27:41.644Z,20.27
2019-05-28T02:30:08.344Z,20.24
2019-05-28T02:32:34.972Z,20.20
2019-05-28T02:35:01.607Z,20.17
2019-05-28T02:37:28.240Z,20.14
2019-05-28T02:39:54.833Z,20.11
2019-05-28T02:42:21.463Z,20.08
2019-05-28T02:44:48.100Z,20.06
2019-05-28T02:47:14.706Z,20.03
2019-05-28T02:49:41.310Z,20.00
2019-05-28T02:52:07.948Z,19.98
2019-05-28T02:54:34.592Z,19.95
2019-05-28T02:57:01.193Z,19.94
2019-05-28T02:59:27.787Z,19.91
2019-05-28T03:01:54.427Z,19.89
2019-05-28T03:04:21.018Z,19.87
2019-05-28T03:06:47.641Z,19.87
2019-05-28T03:09:14.245Z,19.86
2019-05-28T03:11:40.836Z,19.86
2019-05-28T03:14:07.480Z,19.85
2019-05-28T03:16:34.067Z,19.86
2019-05-28T03:19:00.675Z,19.87
2019-05-28T03:21:27.304Z,19.89
2019-05-28T03:23:53.939Z,19.89
2019-05-28T03:26:23.561Z,19.90
2019-05-28T03:28:48.893Z,19.90
2019-05-28T03:31:15.516Z,19.91
2019-05-28T03:33:42.158Z,19.91
2019-05-28T03:36:08.757Z,19.92
2019-05-28T03:38:35.470Z,19.92
2019-05-28T03:41:02.279Z,19.94
2019-05-28T03:43:29.115Z,19.94
2019-05-28T03:45:55.708Z,19.98
2019-05-28T03:48:22.328Z,19.99
2019-05-28T03:50:48.959Z,20.00
2019-05-28T03:53:15.559Z,20.02
2019-05-28T03:55:42.171Z,20.04
2019-05-28T03:58:08.768Z,20.04
2019-05-28T04:00:35.428Z,20.06
2019-05-28T04:03:02.020Z,20.07
2019-05-28T04:05:28.619Z,20.09
2019-05-28T04:07:55.237Z,20.11
2019-05-28T04:10:21.820Z,20.13
2019-05-28T04:12:48.433Z,20.14
2019-05-28T04:15:15.047Z,20.17
2019-05-28T04:17:41.641Z,20.19
2019-05-28T04:20:08.280Z,20.22
2019-05-28T04:22:34.880Z,20.24
2019-05-28T04:25:01.549Z,20.27
2019-05-28T04:27:28.134Z,20.30
2019-05-28T04:29:54.725Z,20.33
2019-05-28T04:32:21.330Z,20.36
2019-05-28T04:34:47.919Z,20.38
2019-05-28T04:37:14.552Z,20.41
2019-05-28T04:39:41.186Z,20.44
2019-05-28T04:42:07.791Z,20.49
2019-05-28T04:44:34.410Z,20.50
2019-05-28T04:47:01.011Z,20.54
2019-05-28T04:49:27.692Z,20.56
2019-05-28T04:51:54.286Z,20.58
2019-05-28T04:54:20.948Z,20.60
2019-05-28T04:56:47.670Z,20.62
2019-05-28T04:59:14.296Z,20.64
2019-05-28T05:01:40.888Z,20.65
2019-05-28T05:04:07.488Z,20.70
2019-05-28T05:06:34.161Z,20.72
2019-05-28T05:09:00.817Z,20.77
2019-05-28T05:11:27.424Z,20.79
2019-05-28T05:13:54.033Z,20.82
2019-05-28T05:16:20.720Z,20.85
2019-05-28T05:18:47.311Z,20.87
2019-05-28T05:21:13.942Z,20.90
2019-05-28T05:23:40.584Z,20.94
2019-05-28T05:26:07.176Z,20.98
2019-05-28T05:28:33.921Z,21.04
2019-05-28T05:31:00.594Z,21.09
2019-05-28T05:33:27.204Z,21.15
2019-05-28T05:35:53.849Z,21.22
2019-05-28T05:38:20.476Z,21.28
2019-05-28T05:40:47.133Z,21.32
2019-05-28T05:43:13.761Z,21.39
2019-05-28T05:45:40.358Z,21.46
2019-05-28T05:48:06.994Z,21.53
2019-05-28T05:50:33.596Z,21.60
2019-05-28T05:53:00.236Z,21.66
2019-05-28T05:55:26.837Z,21.72
2019-05-28T05:57:53.431Z,21.80
2019-05-28T06:00:20.043Z,21.88
2019-05-28T06:02:46.623Z,21.96
2019-05-28T06:05:13.275Z,22.03
2019-05-28T06:07:39.996Z,22.12
2019-05-28T06:10:06.671Z,22.19
2019-05-28T06:12:33.307Z,22.28
2019-05-28T06:14:59.956Z,22.35
2019-05-28T06:17:26.677Z,22.44
2019-05-28T06:19:53.254Z,22.53
2019-05-28T06:22:20.011Z,22.63
2019-05-28T06:24:46.680Z,22.75
2019-05-28T06:27:13.313Z,22.87
2019-05-28T06:29:39.904Z,22.98
2019-05-28T06:32:06.509Z,23.12
2019-05-28T06:34:33.121Z,23.23
2019-05-28T06:36:59.907Z,23.33
2019-05-28T06:39:26.504Z,23.44
2019-05-28T06:41:53.124Z,23.53
2019-05-28T06:44:19.764Z,23.64
2019-05-28T06:46:46.404Z,23.73
2019-05-28T06:49:13.002Z,23.83
2019-05-28T06:51:39.626Z,23.96
2019-05-28T06:54:06.271Z,24.06
2019-05-28T06:56:32.857Z,24.14
2019-05-28T06:58:59.473Z,24.26
2019-05-28T07:01:28.401Z,24.39
2019-05-28T07:03:54.440Z,24.46
2019-05-28T07:06:21.067Z,24.52
2019-05-28T07:08:47.681Z,24.57
2019-05-28T07:11:14.296Z,24.62
2019-05-28T07:13:40.907Z,24.71
2019-05-28T07:16:07.497Z,24.79
2019-05-28T07:18:34.179Z,24.83
2019-05-28T07:21:00.805Z,24.91
2019-05-28T07:23:27.461Z,24.95
2019-05-28T07:25:54.062Z,24.99
2019-05-28T07:28:20.645Z,25.03
2019-05-28T07:30:47.267Z,25.07
2019-05-28T07:33:13.852Z,25.14
2019-05-28T07:35:45.729Z,25.18
2019-05-28T07:38:08.895Z,25.17
2019-05-28T07:40:35.483Z,25.16
2019-05-28T07:43:02.093Z,25.13
2019-05-28T07:45:28.690Z,25.12
2019-05-28T07:47:55.295Z,25.12
2019-05-28T07:50:22.036Z,25.13
2019-05-28T07:52:48.697Z,25.14
2019-05-28T07:55:15.327Z,25.15
2019-05-28T07:57:41.923Z,25.18
2019-05-28T08:00:08.578Z,25.24
2019-05-28T08:02:35.199Z,25.29
2019-05-28T08:05:01.850Z,25.27
2019-05-28T08:07:28.617Z,25.27
2019-05-28T08:09:55.208Z,25.26
2019-05-28T08:12:21.815Z,25.29
2019-05-28T08:14:48.506Z,25.32
2019-05-28T08:17:15.156Z,25.35
2019-05-28T08:19:41.811Z,25.42
2019-05-28T08:22:08.463Z,25.49
2019-05-28T08:24:35.058Z,25.60
2019-05-28T08:27:01.675Z,25.72
2019-05-28T08:29:28.300Z,25.86
2019-05-28T08:31:55.025Z,26.04
2019-05-28T08:34:21.928Z,26.18
2019-05-28T08:37:04.362Z,26.34
2019-05-28T08:39:16.922Z,26.42
2019-05-28T08:41:43.537Z,26.46
2019-05-28T08:44:10.129Z,26.45
2019-05-28T08:46:36.837Z,26.45
2019-05-28T08:49:03.494Z,26.42
2019-05-28T08:51:30.223Z,26.39
2019-05-28T08:53:56.814Z,26.34
2019-05-28T08:56:23.403Z,26.35
2019-05-28T08:58:50.064Z,26.38
2019-05-28T09:01:16.773Z,26.42
2019-05-28T09:03:43.363Z,26.42
2019-05-28T09:06:09.980Z,26.39
2019-05-28T09:08:39.766Z,26.35
2019-05-28T09:11:05.010Z,26.27
2019-05-28T09:13:31.740Z,26.17
2019-05-28T09:15:58.403Z,26.04
2019-05-28T09:18:25.022Z,25.90
2019-05-28T09:20:51.722Z,25.77
2019-05-28T09:23:18.319Z,25.61
2019-05-28T09:25:44.946Z,25.45
2019-05-28T09:28:28.457Z,25.31
2019-05-28T09:30:39.933Z,25.18
2019-05-28T09:33:06.672Z,25.10
2019-05-28T09:35:44.278Z,25.12
2019-05-28T09:38:01.715Z,25.28
2019-05-28T09:40:47.899Z,25.47
2019-05-28T09:42:56.767Z,25.71
2019-05-28T09:45:23.644Z,25.97
2019-05-28T09:47:50.423Z,26.29
2019-05-28T09:50:30.109Z,26.56
2019-05-28T09:52:54.654Z,26.82
2019-05-28T09:55:13.690Z,27.06
2019-05-28T09:57:47.548Z,27.28
2019-05-28T10:00:08.619Z,27.42
2019-05-28T10:02:35.275Z,27.52
2019-05-28T10:05:01.921Z,27.59
2019-05-28T10:07:28.503Z,27.61
2019-05-28T10:09:55.165Z,27.54
2019-05-28T10:12:21.755Z,27.45
2019-05-28T10:14:48.352Z,27.38
2019-05-28T10:17:14.976Z,27.35
2019-05-28T10:19:41.708Z,27.32
2019-05-28T10:22:08.417Z,27.27
2019-05-28T10:24:35.007Z,27.18
2019-05-28T10:27:01.632Z,27.09
2019-05-28T10:29:28.287Z,27.01
2019-05-28T10:31:54.902Z,26.98
2019-05-28T10:34:21.510Z,26.88
2019-05-28T10:36:48.157Z,26.78
2019-05-28T10:39:14.740Z,26.68
2019-05-28T10:41:41.372Z,26.59
2019-05-28T10:44:07.992Z,26.53
2019-05-28T10:46:34.596Z,26.50
2019-05-28T10:49:01.316Z,26.45
2019-05-28T10:51:27.952Z,26.44
2019-05-28T10:53:54.658Z,26.42
2019-05-28T10:56:21.254Z,26.43
2019-05-28T10:58:47.909Z,26.49
2019-05-28T11:01:14.598Z,26.54
2019-05-28T11:03:41.210Z,26.63
2019-05-28T11:06:07.792Z,26.74
2019-05-28T11:08:34.522Z,27.16
2019-05-28T11:11:01.119Z,27.78
2019-05-28T11:13:27.781Z,28.67
2019-05-28T11:15:54.479Z,29.61
2019-05-28T11:18:21.160Z,30.71
2019-05-28T11:20:47.787Z,31.92
2019-05-28T11:23:14.394Z,33.07
2019-05-28T11:25:41.041Z,34.00
2019-05-28T11:28:07.631Z,34.74
2019-05-28T11:30:34.241Z,35.36
2019-05-28T11:33:00.877Z,35.87
2019-05-28T11:35:27.514Z,36.26
2019-05-28T11:37:54.139Z,36.36
2019-05-28T11:40:20.728Z,36.22
2019-05-28T11:42:47.364Z,35.75
2019-05-28T11:45:15.587Z,35.11
2019-05-28T11:47:42.427Z,34.45
2019-05-28T11:50:09.015Z,33.84
2019-05-28T11:52:35.655Z,33.27
2019-05-28T11:55:02.288Z,32.67
2019-05-28T11:57:28.926Z,32.08
2019-05-28T11:59:55.553Z,31.50
2019-05-28T12:02:22.245Z,30.94
2019-05-28T12:04:48.894Z,30.43
2019-05-28T12:07:25.430Z,29.95
2019-05-28T12:09:43.844Z,29.59
2019-05-28T12:12:10.497Z,29.32
2019-05-28T12:14:37.118Z,29.13
2019-05-28T12:17:03.731Z,28.87
2019-05-28T12:19:30.358Z,28.56
2019-05-28T12:21:57.053Z,28.27
2019-05-28T12:24:28.086Z,28.05
2019-05-28T12:26:52.115Z,28.00
2019-05-28T12:29:18.890Z,28.19
2019-05-28T12:31:45.539Z,28.91
2019-05-28T12:34:12.213Z,30.21
2019-05-28T12:36:38.824Z,31.70
2019-05-28T12:39:05.442Z,32.94
2019-05-28T12:41:32.066Z,34.15
2019-05-28T12:43:58.681Z,35.18
2019-05-28T12:46:25.307Z,36.00
2019-05-28T12:48:51.910Z,36.68
2019-05-28T12:51:18.707Z,37.15
2019-05-28T12:53:50.712Z,37.86
2019-05-28T12:56:13.653Z,39.05
2019-05-28T12:58:43.158Z,40.03
2019-05-28T13:01:08.712Z,41.13
2019-05-28T13:03:35.443Z,42.73
2019-05-28T13:06:02.148Z,44.18
2019-05-28T13:08:28.760Z,45.54
2019-05-28T13:10:55.450Z,46.64
2019-05-28T13:13:22.042Z,47.39
2019-05-28T13:15:48.665Z,48.14
2019-05-28T13:18:15.288Z,48.89
2019-05-28T13:20:42.124Z,49.27
2019-05-28T13:23:08.886Z,49.92
2019-05-28T13:25:35.488Z,50.54
2019-05-28T13:28:02.114Z,50.98
2019-05-28T13:30:28.739Z,51.51
2019-05-28T13:32:55.498Z,52.14
2019-05-28T13:35:22.270Z,52.66
2019-05-28T13:37:49.092Z,53.00
2019-05-28T13:40:15.795Z,53.19
2019-05-28T13:42:42.443Z,52.93
2019-05-28T13:45:09.117Z,52.75
2019-05-28T13:47:35.752Z,52.44
2019-05-28T13:50:02.607Z,52.06
2019-05-28T13:52:29.360Z,51.43
2019-05-28T13:54:55.987Z,50.45
2019-05-28T13:57:22.679Z,49.03
2019-05-28T13:59:49.300Z,47.85
2019-05-28T14:02:15.913Z,46.55
2019-05-28T14:04:42.639Z,45.92
2019-05-28T14:07:09.248Z,45.03
2019-05-28T14:09:35.860Z,44.66
2019-05-28T14:12:02.474Z,43.42
2019-05-28T14:14:29.284Z,41.91
2019-05-28T14:16:55.889Z,40.34
2019-05-28T14:19:22.489Z,38.82
2019-05-28T14:21:50.109Z,37.45
2019-05-28T14:24:16.723Z,36.35
2019-05-28T14:26:43.321Z,35.31
2019-05-28T14:29:09.999Z,35.18
2019-05-28T14:31:36.603Z,35.29
2019-05-28T14:34:03.225Z,35.11
2019-05-28T14:36:29.830Z,34.70
2019-05-28T14:39:03.293Z,34.76
2019-05-28T14:41:24.794Z,34.57
2019-05-28T14:43:51.406Z,34.33
2019-05-28T14:46:17.996Z,33.95
2019-05-28T14:48:44.722Z,33.52
2019-05-28T14:51:11.350Z,33.02
2019-05-28T14:53:37.965Z,32.55
2019-05-28T14:56:04.592Z,32.07
2019-05-28T14:58:31.269Z,31.72
2019-05-28T15:00:57.869Z,31.35
2019-05-28T15:03:24.509Z,30.96
2019-05-28T15:05:51.185Z,30.62
2019-05-28T15:08:17.790Z,30.29
2019-05-28T15:10:44.399Z,29.92
2019-05-28T15:13:11.055Z,29.56
2019-05-28T15:15:37.651Z,29.25
2019-05-28T15:18:04.317Z,28.96
2019-05-28T15:20:31.083Z,28.73
2019-05-28T15:22:57.673Z,28.52
2019-05-28T15:25:24.320Z,28.41
2019-05-28T15:27:50.938Z,28.38
2019-05-28T15:30:17.549Z,28.40
2019-05-28T15:32:44.188Z,28.46
2019-05-28T15:35:10.958Z,28.50
2019-05-28T15:37:37.611Z,28.54
2019-05-28T15:40:04.314Z,28.51
2019-05-28T15:42:32.066Z,28.43
2019-05-28T15:44:58.676Z,28.30
2019-05-28T15:47:25.278Z,28.17
2019-05-28T15:49:52.017Z,28.09
2019-05-28T15:52:18.628Z,28.03
2019-05-28T15:54:45.237Z,27.94
2019-05-28T15:57:11.871Z,27.89
2019-05-28T15:59:38.533Z,27.83
2019-05-28T16:02:05.316Z,27.76
2019-05-28T16:04:31.909Z,27.72
2019-05-28T16:06:58.563Z,27.68
2019-05-28T16:09:25.187Z,27.64
2019-05-28T16:11:51.824Z,27.61
2019-05-28T16:14:18.468Z,27.61
2019-05-28T16:16:45.110Z,27.61
2019-05-28T16:19:11.698Z,27.59
2019-05-28T16:21:38.335Z,27.56
2019-05-28T16:24:04.952Z,27.53
2019-05-28T16:26:31.615Z,27.47
2019-05-28T16:28:58.204Z,27.45
2019-05-28T16:31:24.811Z,27.43
2019-05-28T16:33:51.473Z,27.41
2019-05-28T16:36:18.207Z,27.37
2019-05-28T16:38:44.867Z,27.31
2019-05-28T16:41:11.480Z,27.25
2019-05-28T16:43:38.111Z,27.21
2019-05-28T16:46:04.796Z,27.17
2019-05-28T16:48:31.505Z,27.10
2019-05-28T16:50:58.093Z,27.04
2019-05-28T16:53:24.707Z,27.00
2019-05-28T16:55:51.297Z,26.95
2019-05-28T16:58:17.941Z,26.90
2019-05-28T17:00:44.581Z,26.85
2019-05-28T17:03:11.182Z,26.78
2019-05-28T17:05:37.787Z,26.74
2019-05-28T17:08:04.508Z,26.67
2019-05-28T17:10:33.446Z,26.59
2019-05-28T17:12:59.452Z,26.52
2019-05-28T17:15:26.293Z,26.42
2019-05-28T17:17:52.935Z,26.33
2019-05-28T17:20:19.536Z,26.25
2019-05-28T17:22:46.143Z,26.17
2019-05-28T17:25:12.758Z,26.08
2019-05-28T17:27:39.387Z,26.02
2019-05-28T17:30:17.804Z,25.95
2019-05-28T17:32:34.355Z,25.85
2019-05-28T17:35:01.111Z,25.77
2019-05-28T17:37:27.703Z,25.70
2019-05-28T17:39:54.321Z,25.61
2019-05-28T17:42:20.952Z,25.52
2019-05-28T17:44:47.553Z,25.45
2019-05-28T17:47:14.187Z,25.38
2019-05-28T17:49:40.864Z,25.31
2019-05-28T17:52:07.476Z,25.25
2019-05-28T17:54:34.075Z,25.18
2019-05-28T17:57:00.712Z,25.11
2019-05-28T17:59:27.343Z,25.03
2019-05-28T18:01:54.035Z,24.96
2019-05-28T18:04:20.749Z,24.90
2019-05-28T18:06:47.380Z,24.83
2019-05-28T18:09:13.977Z,24.77
2019-05-28T18:11:40.620Z,24.73
2019-05-28T18:14:07.212Z,24.66
2019-05-28T18:16:33.864Z,24.61
2019-05-28T18:19:01.034Z,24.55
2019-05-28T18:21:27.654Z,24.49
2019-05-28T18:23:54.298Z,24.42
2019-05-28T18:26:20.896Z,24.36
2019-05-28T18:28:47.530Z,24.28
2019-05-28T18:31:14.140Z,24.21
2019-05-28T18:33:40.750Z,24.16
2019-05-28T18:36:07.356Z,24.09
2019-05-28T18:38:34.008Z,24.02
2019-05-28T18:41:00.596Z,23.96
2019-05-28T18:43:27.194Z,23.90
2019-05-28T18:45:53.838Z,23.85
2019-05-28T18:48:20.660Z,23.78
2019-05-28T18:50:47.257Z,23.75
2019-05-28T18:53:13.850Z,23.70
2019-05-28T18:55:40.489Z,23.64
2019-05-28T18:58:07.267Z,23.58
2019-05-28T19:00:33.987Z,23.50
2019-05-28T19:03:00.590Z,23.42
2019-05-28T19:05:28.338Z,23.35
2019-05-28T19:07:55.017Z,23.26
2019-05-28T19:10:21.701Z,23.13
2019-05-28T19:12:48.376Z,23.00
2019-05-28T19:15:14.973Z,22.91
2019-05-28T19:17:41.669Z,22.81
2019-05-28T19:20:08.417Z,22.69
2019-05-28T19:22:35.045Z,22.57
2019-05-28T19:25:01.744Z,22.45
2019-05-28T19:27:28.401Z,22.33
2019-05-28T19:29:55.031Z,22.22
2019-05-28T19:32:21.694Z,22.14
2019-05-28T19:34:48.792Z,22.07
2019-05-28T19:37:15.589Z,21.99
2019-05-28T19:39:42.221Z,21.94
2019-05-28T19:42:10.031Z,21.91
2019-05-28T19:44:36.901Z,21.88
2019-05-28T19:47:03.527Z,21.84
2019-05-28T19:49:30.121Z,21.80
2019-05-28T19:51:56.823Z,21.76
2019-05-28T19:54:23.416Z,21.72
2019-05-28T19:56:50.051Z,21.67
2019-05-28T19:59:16.672Z,21.63
2019-05-28T20:01:43.343Z,21.57
2019-05-28T20:04:09.998Z,21.52
2019-05-28T20:06:36.656Z,21.50
2019-05-28T20:09:03.276Z,21.49
2019-05-28T20:11:29.950Z,21.46
2019-05-28T20:13:56.569Z,21.47
2019-05-28T20:16:23.259Z,21.47
2019-05-28T20:18:49.924Z,21.45
2019-05-28T20:21:16.524Z,21.42
2019-05-28T20:23:43.191Z,21.41
2019-05-28T20:26:09.791Z,21.39
2019-05-28T20:28:36.376Z,21.37
2019-05-28T20:31:03.934Z,21.35
2019-05-28T20:33:30.569Z,21.33
2019-05-28T20:35:57.229Z,21.32
2019-05-28T20:38:23.844Z,21.31
2019-05-28T20:40:50.440Z,21.30
2019-05-28T20:43:17.056Z,21.27
2019-05-28T20:45:43.691Z,21.26
2019-05-28T20:48:10.802Z,21.23
2019-05-28T20:50:37.566Z,21.21
2019-05-28T20:53:04.229Z,21.16
2019-05-28T20:55:30.862Z,21.12
2019-05-28T20:57:57.511Z,21.08
2019-05-28T21:00:24.136Z,21.01
2019-05-28T21:02:51.711Z,20.93
2019-05-28T21:05:18.461Z,20.88
2019-05-28T21:07:45.092Z,20.83
2019-05-28T21:10:11.884Z,20.75
2019-05-28T21:12:43.998Z,20.68
2019-05-28T21:15:06.867Z,20.61
2019-05-28T21:17:33.559Z,20.54
2019-05-28T21:20:00.202Z,20.49
2019-05-28T21:22:27.257Z,20.45
2019-05-28T21:24:56.793Z,20.40
2019-05-28T21:27:22.651Z,20.37
2019-05-28T21:29:49.972Z,20.28
2019-05-28T21:32:16.642Z,20.23
2019-05-28T21:34:43.280Z,20.18
2019-05-28T21:37:09.871Z,20.12
2019-05-28T21:39:36.482Z,20.05
2019-05-28T21:42:03.367Z,19.98
2019-05-28T21:44:30.078Z,19.93
2019-05-28T21:46:56.687Z,19.90
2019-05-28T21:49:23.809Z,19.88
2019-05-28T21:51:50.496Z,19.84
2019-05-28T21:54:17.084Z,19.82
2019-05-28T21:56:43.744Z,19.77
2019-05-28T21:59:10.586Z,19.76
2019-05-28T22:01:37.188Z,19.74
2019-05-28T22:04:03.791Z,19.70
2019-05-28T22:06:30.405Z,19.68
2019-05-28T22:08:57.723Z,19.65
2019-05-28T22:11:24.590Z,19.61
2019-05-28T22:13:51.225Z,19.60
2019-05-28T22:16:17.819Z,19.58
2019-05-28T22:18:44.423Z,19.58
2019-05-28T22:21:11.017Z,19.57
2019-05-28T22:23:37.640Z,19.56
2019-05-28T22:26:05.015Z,19.55
2019-05-28T22:28:31.836Z,19.53
2019-05-28T22:30:59.651Z,19.52
2019-05-28T22:33:26.309Z,19.52
2019-05-28T22:35:52.958Z,19.53
2019-05-28T22:38:19.580Z,19.52
2019-05-28T22:40:46.183Z,19.53
2019-05-28T22:43:12.835Z,19.52
2019-05-28T22:45:42.974Z,19.50
2019-05-28T22:48:15.800Z,19.48
2019-05-28T22:50:36.320Z,19.43
2019-05-28T22:53:03.926Z,19.39
2019-05-28T22:55:30.617Z,19.34
2019-05-28T22:57:58.160Z,19.32
2019-05-28T23:00:24.844Z,19.30
2019-05-28T23:02:51.454Z,19.28
2019-05-28T23:05:18.061Z,19.25
2019-05-28T23:07:44.673Z,19.21
2019-05-28T23:10:11.373Z,19.18
2019-05-28T23:12:38.079Z,19.15
2019-05-28T23:15:04.665Z,19.14
2019-05-28T23:17:31.314Z,19.13
2019-05-28T23:19:57.903Z,19.11
2019-05-28T23:22:24.591Z,19.10
2019-05-28T23:24:51.233Z,19.09
2019-05-28T23:27:17.820Z,19.08
2019-05-28T23:29:44.409Z,19.07
2019-05-28T23:32:11.043Z,19.07
2019-05-28T23:34:37.674Z,19.06
2019-05-28T23:37:04.834Z,19.04
2019-05-28T23:39:32.755Z,19.02
2019-05-28T23:41:59.395Z,19.01
2019-05-28T23:44:26.028Z,19.00
2019-05-28T23:46:52.628Z,18.97
2019-05-28T23:49:19.425Z,18.94
2019-05-28T23:51:46.018Z,18.88
2019-05-28T23:54:13.708Z,18.87
2019-05-28T23:56:40.609Z,18.83
2019-05-28T23:59:07.702Z,18.82
